Gran Canaria - Aeropuerto en Canarias

latitud = 27° 55' 4''N | longitud = 015° 23' 43''W
32 metros sobre el nivel del mar |

Fecha, hora, temperatura, viento dirección y velocidad, humedad y presión.

  • 16-07-2018 12:00:00 | 23.80°C | Norte |41.00 km/h | 58.00% | 1015.10 hPa
  • 16-07-2018 11:00:00 | 22.60°C | Norte |38.00 km/h | 62.00% | 1015.10 hPa
  • 16-07-2018 10:00:00 | 22.40°C | Norte |39.00 km/h | 63.00% | 1014.60 hPa
  • 16-07-2018 09:00:00 | 20.80°C | Norte |41.00 km/h | 76.00% | 1014.50 hPa
  • 16-07-2018 08:00:00 | 20.70°C | Norte |32.00 km/h | 72.00% | 1014.80 hPa
  • 16-07-2018 07:00:00 | 20.50°C | Norte |31.00 km/h | 73.00% | 1014.60 hPa
  • 16-07-2018 06:00:00 | 20.70°C | Norte |31.00 km/h | 73.00% | 1014.60 hPa
  • 16-07-2018 05:00:00 | 20.60°C | Norte |35.00 km/h | 73.00% | 1014.50 hPa
  • 16-07-2018 04:00:00 | 20.50°C | Norte |30.00 km/h | 74.00% | 1014.70 hPa
  • 16-07-2018 03:00:00 | 20.60°C | Norte |29.00 km/h | 71.00% | 1015.00 hPa
  • 16-07-2018 02:00:00 | 20.50°C | Norte |32.00 km/h | 70.00% | 1015.50 hPa
  • 16-07-2018 01:00:00 | 20.70°C | Norte |31.00 km/h | 71.00% | 1016.10 hPa
  • 16-07-2018 00:00:00 | 20.90°C | Norte |30.00 km/h | 70.00% | 1015.90 hPa
  • 15-07-2018 23:00:00 | 21.00°C | Norte |31.00 km/h | 73.00% | 1016.30 hPa
  • 15-07-2018 22:00:00 | 21.10°C | Norte |29.00 km/h | 72.00% | 1016.00 hPa
  • 15-07-2018 21:00:00 | 21.50°C | Norte |30.00 km/h | 71.00% | 1015.50 hPa
  • 15-07-2018 20:00:00 | 22.50°C | Norte |39.00 km/h | 67.00% | 1015.00 hPa
  • 15-07-2018 19:00:00 | 23.30°C | Norte |37.00 km/h | 62.00% | 1014.80 hPa
  • 15-07-2018 18:00:00 | 24.10°C | Norte |41.00 km/h | 59.00% | 1014.90 hPa
  • 15-07-2018 17:00:00 | 24.50°C | Norte |33.00 km/h | 58.00% | 1015.30 hPa
  • 15-07-2018 16:00:00 | 24.60°C | Norte |40.00 km/h | 57.00% | 1015.70 hPa
  • 15-07-2018 15:00:00 | 24.70°C | Norte |39.00 km/h | 56.00% | 1016.10 hPa
  • 15-07-2018 14:00:00 | 24.50°C | Norte |36.00 km/h | 57.00% | 1016.30 hPa
  • 15-07-2018 13:00:00 | 24.30°C | Norte |40.00 km/h | 56.00% | 1016.40 hPa